aaspot.net alexa rank chart, aaspot.net alexa rank daily changes

aaspot.net alexa rank chart, aaspot.net alexa rank daily changes

aaspot.net
Actual rank:
536 711

RANK HISTORY

Date Rank Diff
2017/03/23 536 711 +4 296
2017/03/22 532 415 +21 512
2017/03/21 510 903 +7 313
2017/03/20 503 590 +2 495
2017/03/19 501 095 -1 804
2017/03/18 502 899 +531
2017/03/17 502 368 -1 405
2017/03/16 503 773 -10 359
2017/03/15 514 132 -4 794
2017/03/14 518 926 -3 147
2017/03/13 522 073 +7 552
2017/03/12 514 521 -5 487
2017/03/11 520 008 +39
2017/03/10 519 969 +9 451
2017/03/09 510 518 -3 572
2017/03/08 514 090 +40 683
2017/03/07 473 407 +3 887
2017/03/06 469 520 -716
2017/03/01 470 236 +4 438
2017/02/28 465 798 -5 674
2017/02/27 471 472 +13 871
2017/02/26 457 601 +338
2017/02/25 457 263 -2 230
2017/02/24 459 493 -4 778
2017/02/23 464 271 +10 571
2017/02/22 453 700 -3 182
2017/02/21 456 882 -5 999
2017/02/20 462 881 -5 600
2017/02/19 468 481 +7 712
2017/02/18 460 769 +4 416
2017/02/17 456 353 +5 934
2017/02/16 450 419 +4 721
2017/02/15 445 698 +16 080
2017/02/14 429 618 -3 226
2017/02/13 432 844 +60
2017/02/12 432 784 +1 877
2017/02/11 430 907 -4 281
2017/02/10 435 188 +8 337
2017/02/09 426 851 +3 369
2017/02/08 423 482 -5 978
2017/02/07 429 460 -10 036
2017/02/06 439 496 -10 887
2017/02/05 450 383 -8 827
2017/02/04 459 210 -2 190
2017/02/03 461 400 +9 426
2017/02/02 451 974 +2 410
2017/02/01 449 564 -7 840
2017/01/31 457 404 -9 675
2017/01/30 467 079 -16 215
2017/01/29 483 294 -2 155
2017/01/28 485 449 +10 425
2017/01/27 475 024 -15 658
2017/01/26 490 682 +3 909
2017/01/25 486 773 -13 686
2017/01/24 500 459 +3 394
2017/01/23 497 065 -14 844
2017/01/22 511 909

WIDGET FOR YOUR SITE

DOMAINS WITH THE NEAREST RANK

Domain Rank
onlinedegreereviews.org 536 706
myfurniturestore.com.au 536 707
privateoutlet.it 536 708
findmydoppelganger.net 536 709
jogos10.com 536 710
aaspot.net 536 711
goldenegedanken.com 536 712
smb2stfinitesubs1.blogspot.my 536 713
codingforspeed.com 536 714
enlacebct.com 536 715
4glove.co 536 716

DOMAINS WITH THE NEAREST RANK BY TLD .net

Domain Rank
algerie-poste.net 536 651
isa-school.net 536 663
linnk.net 536 670
tempmail.net 536 672
findmydoppelganger.net 536 709
aaspot.net 536 711
uirauna.net 536 723
maximuma.net 536 733
tradewave.net 536 736
yabande.net 536 742
ekrea.net 536 771